createdAt,value
2022-10-11T00:02:03.133Z,101087.63
2022-10-11T00:04:29.872Z,101092.81
2022-10-11T00:06:56.553Z,101096.34
2022-10-11T00:09:23.274Z,101099.75
2022-10-11T00:11:49.994Z,101102.91
2022-10-11T00:14:16.725Z,101109.31
2022-10-11T00:16:44.783Z,101101.72
2022-10-11T00:19:12.006Z,101103.19
2022-10-11T00:21:39.376Z,101106.13
2022-10-11T00:24:06.686Z,101101.41
2022-10-11T00:26:33.380Z,101108.81
2022-10-11T00:29:02.470Z,101118.81
2022-10-11T00:31:33.305Z,101116.38
2022-10-11T00:34:02.191Z,101122.13
2022-10-11T00:36:28.822Z,101115.63
2022-10-11T00:38:55.560Z,101112.72
2022-10-11T00:41:22.891Z,101110.34
2022-10-11T00:44:08.939Z,101108.09
2022-10-11T00:46:35.784Z,101109.41
2022-10-11T00:49:45.401Z,101115.84
2022-10-11T00:52:22.036Z,101114.06
2022-10-11T00:54:49.495Z,101114.28
2022-10-11T00:57:21.845Z,101123.38
2022-10-11T00:59:52.617Z,101118.88
2022-10-11T01:02:20.638Z,101124.31
2022-10-11T01:04:47.587Z,101124.09
2022-10-11T01:07:14.274Z,101129.88
2022-10-11T01:09:40.936Z,101138.19
2022-10-11T01:12:17.947Z,101129.97
2022-10-11T01:15:05.511Z,101133.94
2022-10-11T01:18:06.707Z,101138.88
2022-10-11T01:20:51.314Z,101130.34
2022-10-11T01:23:51.328Z,101124.31
2022-10-11T01:26:18.030Z,101123.81
2022-10-11T01:28:57.180Z,101124.59
2022-10-11T01:31:32.172Z,101120.84
2022-10-11T01:34:01.665Z,101125.22
2022-10-11T01:36:46.796Z,101123.91
2022-10-11T01:39:20.158Z,101126.00
2022-10-11T01:41:51.180Z,101129.66
2022-10-11T01:44:18.848Z,101133.25
2022-10-11T01:46:45.571Z,101131.78
2022-10-11T01:49:12.307Z,101133.72
2022-10-11T01:51:52.741Z,101131.78
2022-10-11T01:54:50.184Z,101127.69
2022-10-11T01:57:26.388Z,101135.56
2022-10-11T01:59:59.148Z,101138.88
2022-10-11T02:02:51.664Z,101131.63
2022-10-11T02:05:24.223Z,101135.00
2022-10-11T02:08:14.442Z,101128.69
2022-10-11T02:10:48.140Z,101131.25
2022-10-11T02:13:39.972Z,101131.66
2022-10-11T02:16:12.836Z,101131.44
2022-10-11T02:18:45.872Z,101126.09
2022-10-11T02:21:18.639Z,101118.84
2022-10-11T02:23:51.229Z,101120.28
2022-10-11T02:26:19.981Z,101116.88
2022-10-11T02:28:49.256Z,101115.19
2022-10-11T02:31:18.152Z,101109.88
2022-10-11T02:33:59.104Z,101107.81
2022-10-11T02:36:48.170Z,101103.81
2022-10-11T02:39:31.516Z,101115.22
2022-10-11T02:42:02.291Z,101105.19
2022-10-11T02:44:35.750Z,101105.91
2022-10-11T02:47:04.002Z,101103.34
2022-10-11T02:49:32.091Z,101105.06
2022-10-11T02:51:59.410Z,101101.31
2022-10-11T02:54:26.327Z,101096.81
2022-10-11T02:56:53.280Z,101093.94
2022-10-11T02:59:19.965Z,101094.53
2022-10-11T03:01:46.866Z,101092.69
2022-10-11T03:04:14.057Z,101104.34
2022-10-11T03:06:40.800Z,101096.09
2022-10-11T03:09:07.502Z,101102.88
2022-10-11T03:11:34.316Z,101102.63
2022-10-11T03:14:00.956Z,101102.50
2022-10-11T03:16:27.630Z,101101.66
2022-10-11T03:18:54.262Z,101096.34
2022-10-11T03:21:20.957Z,101105.81
2022-10-11T03:23:47.657Z,101108.22
2022-10-11T03:26:14.456Z,101105.06
2022-10-11T03:28:41.475Z,101104.72
2022-10-11T03:31:08.265Z,101103.25
2022-10-11T03:33:34.946Z,101102.19
2022-10-11T03:36:02.030Z,101103.50
2022-10-11T03:38:28.883Z,101101.00
2022-10-11T03:40:55.506Z,101110.56
2022-10-11T03:43:22.286Z,101101.84
2022-10-11T03:45:48.974Z,101107.78
2022-10-11T03:48:15.768Z,101109.22
2022-10-11T03:50:42.453Z,101119.03
2022-10-11T03:53:09.421Z,101111.88
2022-10-11T03:55:41.393Z,101116.16
2022-10-11T03:58:08.417Z,101109.22
2022-10-11T04:00:35.712Z,101120.38
2022-10-11T04:03:03.972Z,101107.66
2022-10-11T04:05:31.342Z,101108.75
2022-10-11T04:07:58.092Z,101114.31
2022-10-11T04:10:24.786Z,101118.69
2022-10-11T04:12:51.409Z,101124.03
2022-10-11T04:15:18.285Z,101121.38
2022-10-11T04:17:45.117Z,101118.69
2022-10-11T04:20:11.928Z,101127.16
2022-10-11T04:22:38.703Z,101117.22
2022-10-11T04:25:06.806Z,101121.25
2022-10-11T04:27:33.734Z,101119.88
2022-10-11T04:30:00.579Z,101125.94
2022-10-11T04:32:27.961Z,101130.78
2022-10-11T04:34:54.669Z,101121.22
2022-10-11T04:37:21.441Z,101122.31
2022-10-11T04:39:48.087Z,101128.38
2022-10-11T04:42:14.850Z,101128.25
2022-10-11T04:44:41.510Z,101123.50
2022-10-11T04:47:08.190Z,101127.16
2022-10-11T04:49:34.909Z,101115.63
2022-10-11T04:52:01.660Z,101126.44
2022-10-11T04:54:28.406Z,101131.06
2022-10-11T04:56:55.088Z,101123.28
2022-10-11T04:59:21.843Z,101126.09
2022-10-11T05:01:48.570Z,101124.50
2022-10-11T05:04:15.342Z,101127.88
2022-10-11T05:06:42.062Z,101129.72
2022-10-11T05:09:08.966Z,101128.75
2022-10-11T05:11:35.751Z,101133.47
2022-10-11T05:14:02.606Z,101123.91
2022-10-11T05:16:29.297Z,101133.72
2022-10-11T05:18:55.959Z,101145.38
2022-10-11T05:21:28.472Z,101129.25
2022-10-11T05:23:56.651Z,101137.34
2022-10-11T05:26:25.601Z,101128.25
2022-10-11T05:28:52.925Z,101134.19
2022-10-11T05:31:20.390Z,101129.81
2022-10-11T05:33:47.165Z,101137.72
2022-10-11T05:36:14.372Z,101142.81
2022-10-11T05:38:41.542Z,101146.81
2022-10-11T05:41:12.646Z,101147.31
2022-10-11T05:43:39.347Z,101154.69
2022-10-11T05:46:16.403Z,101154.09
2022-10-11T05:48:43.123Z,101152.16
2022-10-11T05:51:11.621Z,101143.41
2022-10-11T05:53:38.952Z,101154.34
2022-10-11T05:56:16.749Z,101140.75
2022-10-11T05:58:43.524Z,101142.56
2022-10-11T06:01:22.991Z,101140.41
2022-10-11T06:03:49.915Z,101132.63
2022-10-11T06:06:17.427Z,101141.97
2022-10-11T06:08:44.762Z,101144.97
2022-10-11T06:11:17.745Z,101146.81
2022-10-11T06:13:44.802Z,101152.41
2022-10-11T06:16:12.488Z,101154.09
2022-10-11T06:18:39.586Z,101166.84
2022-10-11T06:21:06.581Z,101164.03
2022-10-11T06:23:33.231Z,101169.13
2022-10-11T06:26:02.599Z,101172.75
2022-10-11T06:28:29.994Z,101176.78
2022-10-11T06:30:57.514Z,101175.94
2022-10-11T06:33:24.925Z,101170.09
2022-10-11T06:36:04.810Z,101175.91
2022-10-11T06:38:31.750Z,101178.00
2022-10-11T06:40:58.470Z,101178.84
2022-10-11T06:43:25.435Z,101171.69
2022-10-11T06:45:52.107Z,101172.28
2022-10-11T06:48:18.783Z,101179.09
2022-10-11T06:50:59.528Z,101182.47
2022-10-11T06:53:27.874Z,101171.91
2022-10-11T06:55:54.526Z,101172.44
2022-10-11T06:58:21.264Z,101172.91
2022-10-11T07:00:47.967Z,101163.69
2022-10-11T07:03:14.742Z,101175.09
2022-10-11T07:05:41.371Z,101168.75
2022-10-11T07:08:08.078Z,101178.59
2022-10-11T07:10:35.702Z,101181.03
2022-10-11T07:13:03.207Z,101179.56
2022-10-11T07:15:30.082Z,101190.13
2022-10-11T07:17:56.775Z,101187.09
2022-10-11T07:20:31.590Z,101192.66
2022-10-11T07:22:58.373Z,101185.84
2022-10-11T07:25:25.059Z,101185.34
2022-10-11T07:27:51.738Z,101195.63
2022-10-11T07:30:18.504Z,101191.47
2022-10-11T07:32:45.184Z,101187.47
2022-10-11T07:35:11.918Z,101189.38
2022-10-11T07:37:38.658Z,101178.31
2022-10-11T07:40:06.997Z,101180.38
2022-10-11T07:42:33.718Z,101182.59
2022-10-11T07:45:00.361Z,101183.56
2022-10-11T07:47:27.040Z,101178.94
2022-10-11T07:49:53.733Z,101181.34
2022-10-11T07:52:20.456Z,101183.66
2022-10-11T07:54:50.114Z,101188.47
2022-10-11T07:57:16.824Z,101192.22
2022-10-11T07:59:47.826Z,101196.59
2022-10-11T08:02:16.747Z,101191.63
2022-10-11T08:04:43.828Z,101199.13
2022-10-11T08:07:10.517Z,101202.38
2022-10-11T08:09:37.192Z,101195.81
2022-10-11T08:12:03.908Z,101194.91
2022-10-11T08:14:33.488Z,101198.50
2022-10-11T08:17:00.203Z,101196.84
2022-10-11T08:19:26.900Z,101186.84
2022-10-11T08:21:53.685Z,101199.06
2022-10-11T08:24:21.025Z,101196.63
2022-10-11T08:26:48.099Z,101199.50
2022-10-11T08:29:14.938Z,101207.00
2022-10-11T08:31:41.630Z,101199.72
2022-10-11T08:34:08.373Z,101198.50
2022-10-11T08:36:35.136Z,101192.28
2022-10-11T08:39:01.871Z,101187.97
2022-10-11T08:41:37.866Z,101194.28
2022-10-11T08:44:13.384Z,101190.69
2022-10-11T08:46:45.555Z,101195.25
2022-10-11T08:49:15.480Z,101194.97
2022-10-11T08:51:46.802Z,101200.63
2022-10-11T08:54:45.458Z,101198.38
2022-10-11T08:57:16.563Z,101204.00
2022-10-11T08:59:51.241Z,101190.22
2022-10-11T09:03:06.478Z,101193.06
2022-10-11T09:05:34.735Z,101190.56
2022-10-11T09:08:39.933Z,101196.25
2022-10-11T09:11:13.474Z,101192.59
2022-10-11T09:14:05.788Z,101186.41
2022-10-11T09:16:45.002Z,101195.56
2022-10-11T09:19:49.385Z,101207.84
2022-10-11T09:22:43.608Z,101210.66
2022-10-11T09:25:27.536Z,101213.94
2022-10-11T09:28:24.014Z,101214.19
2022-10-11T09:30:54.818Z,101216.34
2022-10-11T09:33:38.749Z,101212.78
2022-10-11T09:36:18.980Z,101216.88
2022-10-11T09:38:56.738Z,101209.81
2022-10-11T09:41:33.297Z,101202.16
2022-10-11T09:46:42.393Z,101192.13
2022-10-11T09:49:14.401Z,101184.50
2022-10-11T09:51:50.917Z,101187.28
2022-10-11T09:54:20.666Z,101189.28
2022-10-11T09:56:47.484Z,101196.69
2022-10-11T09:59:26.521Z,101188.66
2022-10-11T10:02:20.602Z,101192.09
2022-10-11T10:04:58.270Z,101185.22
2022-10-11T10:07:26.074Z,101181.47
2022-10-11T10:09:53.214Z,101188.41
2022-10-11T10:12:27.441Z,101184.50
2022-10-11T10:15:14.020Z,101186.63
2022-10-11T10:17:49.668Z,101188.41
2022-10-11T10:20:50.498Z,101188.81
2022-10-11T10:23:25.006Z,101184.00
2022-10-11T10:25:53.051Z,101189.00
2022-10-11T10:28:27.373Z,101179.66
2022-10-11T10:30:57.252Z,101185.84
2022-10-11T10:33:27.085Z,101176.88
2022-10-11T10:36:03.297Z,101179.75
2022-10-11T10:38:37.520Z,101185.44
2022-10-11T10:41:09.318Z,101189.50
2022-10-11T10:43:38.800Z,101180.88
2022-10-11T10:46:31.657Z,101162.66
2022-10-11T10:49:34.498Z,101148.09
2022-10-11T10:51:57.884Z,101156.72
2022-10-11T10:54:30.440Z,101168.75
2022-10-11T10:57:03.926Z,101161.50
2022-10-11T10:59:52.530Z,101172.00
2022-10-11T11:02:41.618Z,101187.47
2022-10-11T11:05:23.698Z,101178.56
2022-10-11T11:07:54.078Z,101184.56
2022-10-11T11:10:33.929Z,101189.78
2022-10-11T11:13:09.859Z,101193.56
2022-10-11T11:15:45.121Z,101180.25
2022-10-11T11:18:43.624Z,101178.94
2022-10-11T11:21:40.540Z,101176.38
2022-10-11T11:24:39.550Z,101188.53
2022-10-11T11:27:12.205Z,101184.69
2022-10-11T11:29:55.335Z,101180.69
2022-10-11T11:32:45.718Z,101179.63
2022-10-11T11:35:24.573Z,101171.03
2022-10-11T11:38:01.383Z,101165.81
2022-10-11T11:40:44.403Z,101162.84
2022-10-11T11:43:23.593Z,101157.06
2022-10-11T11:45:56.588Z,101158.84
2022-10-11T11:48:25.349Z,101163.44
2022-10-11T11:51:31.528Z,101154.28
2022-10-11T11:54:13.187Z,101154.50
2022-10-11T11:56:56.621Z,101158.94
2022-10-11T11:59:33.810Z,101158.59
2022-10-11T12:02:19.244Z,101153.72
2022-10-11T12:04:48.460Z,101152.00
2022-10-11T12:07:18.514Z,101145.66
2022-10-11T12:10:18.506Z,101145.13
2022-10-11T12:12:45.561Z,101137.88
2022-10-11T12:15:26.128Z,101130.97
2022-10-11T12:17:58.519Z,101134.19
2022-10-11T12:20:31.664Z,101141.16
2022-10-11T12:23:20.248Z,101137.94
2022-10-11T12:26:18.609Z,101133.72
2022-10-11T12:29:07.628Z,101132.16
2022-10-11T12:31:36.481Z,101133.16
2022-10-11T12:34:16.959Z,101141.25
2022-10-11T12:36:50.905Z,101141.22
2022-10-11T12:39:20.699Z,101125.28
2022-10-11T12:41:47.372Z,101126.84
2022-10-11T12:44:21.007Z,101118.34
2022-10-11T12:46:50.541Z,101124.31
2022-10-11T12:49:39.083Z,101125.28
2022-10-11T12:52:17.849Z,101116.41
2022-10-11T12:55:12.355Z,101112.88
2022-10-11T12:58:06.010Z,101113.94
2022-10-11T13:00:52.949Z,101114.25
2022-10-11T13:03:35.265Z,101117.50
2022-10-11T13:06:25.063Z,101114.38
2022-10-11T13:09:18.233Z,101112.94
2022-10-11T13:11:54.074Z,101121.94
2022-10-11T13:14:26.247Z,101115.41
2022-10-11T13:17:19.404Z,101103.03
2022-10-11T13:19:50.643Z,101099.06
2022-10-11T13:22:23.241Z,101100.84
2022-10-11T13:24:50.053Z,101089.63
2022-10-11T13:27:27.346Z,101087.84
2022-10-11T13:29:59.355Z,101081.78
2022-10-11T13:32:30.229Z,101087.63
2022-10-11T13:35:14.703Z,101084.63
2022-10-11T13:37:45.824Z,101078.88
2022-10-11T13:40:18.497Z,101077.09
2022-10-11T13:42:46.254Z,101076.09
2022-10-11T13:45:14.398Z,101069.38
2022-10-11T13:47:41.233Z,101069.97
2022-10-11T13:50:13.963Z,101073.72
2022-10-11T13:52:57.210Z,101066.59
2022-10-11T13:55:30.530Z,101064.00
2022-10-11T13:57:59.572Z,101063.78
2022-10-11T14:00:39.167Z,101053.78
2022-10-11T14:03:14.975Z,101051.88
2022-10-11T14:05:51.566Z,101056.41
2022-10-11T14:08:27.102Z,101049.88
2022-10-11T14:10:57.149Z,101043.31
2022-10-11T14:13:29.148Z,101044.81
2022-10-11T14:16:08.525Z,101041.44
2022-10-11T14:18:45.305Z,101049.69
2022-10-11T14:21:27.044Z,101043.97
2022-10-11T14:23:56.534Z,101035.91
2022-10-11T14:26:24.418Z,101036.66
2022-10-11T14:28:58.100Z,101031.63
2022-10-11T14:31:28.921Z,101031.75
2022-10-11T14:33:56.577Z,101027.63
2022-10-11T14:36:23.883Z,101025.50
2022-10-11T14:38:52.369Z,101027.25
2022-10-11T14:41:19.443Z,101015.44
2022-10-11T14:43:46.256Z,101016.03
2022-10-11T14:46:25.154Z,101011.03
2022-10-11T14:48:56.547Z,100998.53
2022-10-11T14:51:29.607Z,101006.50
2022-10-11T14:53:56.427Z,101003.13
2022-10-11T14:56:23.203Z,100990.72
2022-10-11T14:58:50.024Z,100994.72
2022-10-11T15:01:17.739Z,100985.97
2022-10-11T15:03:44.757Z,100992.78
2022-10-11T15:06:26.450Z,100984.78
2022-10-11T15:08:53.101Z,100980.66
2022-10-11T15:11:21.715Z,100966.22
2022-10-11T15:13:49.207Z,100979.56
2022-10-11T15:16:19.609Z,100973.72
2022-10-11T15:18:51.860Z,100971.50
2022-10-11T15:21:24.257Z,100972.34
2022-10-11T15:23:52.290Z,100967.81
2022-10-11T15:26:22.009Z,100973.78
2022-10-11T15:28:49.112Z,100963.97
2022-10-11T15:31:16.576Z,100965.97
2022-10-11T15:33:43.758Z,100963.50
2022-10-11T15:36:19.005Z,100965.34
2022-10-11T15:38:46.937Z,100964.25
2022-10-11T15:41:15.737Z,100960.19
2022-10-11T15:43:43.951Z,100968.25
2022-10-11T15:46:15.306Z,100960.63
2022-10-11T15:48:41.838Z,100959.03
2022-10-11T15:51:08.492Z,100967.72
2022-10-11T15:53:35.325Z,100961.78
2022-10-11T15:56:06.028Z,100962.34
2022-10-11T15:58:35.377Z,100962.41
2022-10-11T16:01:11.731Z,100965.38
2022-10-11T16:03:38.540Z,100967.41
2022-10-11T16:06:06.025Z,100960.25
2022-10-11T16:08:34.147Z,100951.22
2022-10-11T16:11:32.636Z,100956.03
2022-10-11T16:13:59.378Z,100953.81
2022-10-11T16:16:26.027Z,100945.34
2022-10-11T16:18:52.992Z,100940.28
2022-10-11T16:21:21.010Z,100930.13
2022-10-11T16:23:47.747Z,100928.16
2022-10-11T16:26:16.475Z,100929.31
2022-10-11T16:28:43.615Z,100925.38
2022-10-11T16:31:14.215Z,100923.56
2022-10-11T16:33:45.945Z,100926.25
2022-10-11T16:36:40.340Z,100925.25
2022-10-11T16:39:16.940Z,100930.16
2022-10-11T16:41:44.492Z,100926.78
2022-10-11T16:44:15.782Z,100923.97
2022-10-11T16:46:43.296Z,100927.78
2022-10-11T16:49:10.047Z,100930.72
2022-10-11T16:51:36.810Z,100935.69
2022-10-11T16:54:03.818Z,100933.97
2022-10-11T16:56:32.525Z,100927.41
2022-10-11T16:59:00.831Z,100926.00
2022-10-11T17:01:28.112Z,100936.84
2022-10-11T17:03:55.783Z,100924.59
2022-10-11T17:06:23.380Z,100923.75
2022-10-11T17:08:50.604Z,100933.59
2022-10-11T17:11:22.313Z,100925.44
2022-10-11T17:13:50.166Z,100922.88
2022-10-11T17:16:17.512Z,100925.16
2022-10-11T17:18:44.354Z,100923.06
2022-10-11T17:21:14.245Z,100914.47
2022-10-11T17:23:41.720Z,100913.06
2022-10-11T17:26:11.617Z,100913.75
2022-10-11T17:28:38.791Z,100906.03
2022-10-11T17:31:06.509Z,100903.91
2022-10-11T17:33:33.526Z,100897.84
2022-10-11T17:36:01.063Z,100901.81
2022-10-11T17:38:28.175Z,100902.69
2022-10-11T17:41:02.349Z,100899.44
2022-10-11T17:43:30.004Z,100888.31
2022-10-11T17:45:58.517Z,100891.69
2022-10-11T17:48:26.941Z,100895.38
2022-10-11T17:50:54.175Z,100886.63
2022-10-11T17:53:21.491Z,100883.97
2022-10-11T17:55:51.545Z,100879.56
2022-10-11T17:58:18.414Z,100885.78
2022-10-11T18:00:45.296Z,100874.94
2022-10-11T18:03:12.038Z,100873.25
2022-10-11T18:05:42.024Z,100869.31
2022-10-11T18:08:09.002Z,100866.75
2022-10-11T18:10:38.566Z,100871.09
2022-10-11T18:13:06.761Z,100863.25
2022-10-11T18:15:34.185Z,100856.19
2022-10-11T18:18:00.993Z,100859.69
2022-10-11T18:20:27.643Z,100859.69
2022-10-11T18:22:54.393Z,100859.00
2022-10-11T18:25:21.185Z,100855.34
2022-10-11T18:27:47.918Z,100864.22
2022-10-11T18:30:14.763Z,100863.38
2022-10-11T18:32:41.528Z,100865.34
2022-10-11T18:35:08.662Z,100861.97
2022-10-11T18:37:35.389Z,100870.31
2022-10-11T18:40:02.198Z,100866.75
2022-10-11T18:42:28.888Z,100866.50
2022-10-11T18:44:56.943Z,100855.22
2022-10-11T18:47:23.598Z,100865.91
2022-10-11T18:49:50.285Z,100855.34
2022-10-11T18:52:17.050Z,100860.41
2022-10-11T18:54:43.815Z,100857.59
2022-10-11T18:57:10.469Z,100850.56
2022-10-11T18:59:37.229Z,100850.56
2022-10-11T19:02:04.926Z,100860.84
2022-10-11T19:04:34.245Z,100858.84
2022-10-11T19:07:01.109Z,100855.63
2022-10-11T19:09:28.813Z,100852.66
2022-10-11T19:11:57.265Z,100855.03
2022-10-11T19:14:26.632Z,100844.91
2022-10-11T19:16:54.549Z,100852.25
2022-10-11T19:19:24.939Z,100847.16
2022-10-11T19:21:52.395Z,100845.19
2022-10-11T19:24:22.066Z,100849.69
2022-10-11T19:26:50.092Z,100843.78
2022-10-11T19:29:19.708Z,100839.56
2022-10-11T19:31:52.009Z,100835.75
2022-10-11T19:34:20.145Z,100828.56
2022-10-11T19:36:50.081Z,100832.25
2022-10-11T19:39:18.423Z,100829.56
2022-10-11T19:41:45.552Z,100822.53
2022-10-11T19:44:13.089Z,100822.53
2022-10-11T19:46:55.393Z,100825.19
2022-10-11T19:49:25.156Z,100822.38
2022-10-11T19:51:53.457Z,100812.25
2022-10-11T19:54:20.356Z,100823.09
2022-10-11T19:56:47.521Z,100813.94
2022-10-11T19:59:15.042Z,100815.06
2022-10-11T20:01:42.256Z,100809.41
2022-10-11T20:04:22.916Z,100806.91
2022-10-11T20:06:54.384Z,100808.31
2022-10-11T20:09:29.942Z,100802.13
2022-10-11T20:11:57.631Z,100800.72
2022-10-11T20:14:24.531Z,100800.97
2022-10-11T20:16:51.227Z,100794.38
2022-10-11T20:19:18.758Z,100800.16
2022-10-11T20:21:45.718Z,100793.09
2022-10-11T20:24:12.796Z,100790.72
2022-10-11T20:26:39.981Z,100787.75
2022-10-11T20:29:06.938Z,100787.75
2022-10-11T20:31:38.034Z,100792.38
2022-10-11T20:34:07.325Z,100791.41
2022-10-11T20:36:36.118Z,100783.22
2022-10-11T20:39:04.787Z,100784.09
2022-10-11T20:41:36.937Z,100789.28
2022-10-11T20:44:04.828Z,100780.28
2022-10-11T20:46:36.949Z,100779.88
2022-10-11T20:49:06.580Z,100772.56
2022-10-11T20:51:35.718Z,100771.28
2022-10-11T20:54:02.473Z,100773.66
2022-10-11T20:56:29.980Z,100777.75
2022-10-11T20:58:58.216Z,100773.09
2022-10-11T21:01:27.886Z,100774.94
2022-10-11T21:03:57.050Z,100772.25
2022-10-11T21:06:23.746Z,100771.56
2022-10-11T21:08:50.509Z,100766.06
2022-10-11T21:11:17.234Z,100761.44
2022-10-11T21:13:43.986Z,100766.63
2022-10-11T21:16:16.127Z,100765.63
2022-10-11T21:18:42.996Z,100770.56
2022-10-11T21:21:11.955Z,100762.69
2022-10-11T21:23:39.556Z,100758.31
2022-10-11T21:26:09.098Z,100762.97
2022-10-11T21:28:35.883Z,100754.94
2022-10-11T21:31:07.705Z,100756.78
2022-10-11T21:33:35.664Z,100748.44
2022-10-11T21:36:19.513Z,100753.97
2022-10-11T21:38:46.707Z,100758.31
2022-10-11T21:41:21.844Z,100744.38
2022-10-11T21:43:52.759Z,100749.19
2022-10-11T21:46:41.721Z,100746.94
2022-10-11T21:49:12.016Z,100738.91
2022-10-11T21:51:38.764Z,100733.28
2022-10-11T21:54:05.764Z,100734.25
2022-10-11T21:56:32.549Z,100731.72
2022-10-11T21:58:59.398Z,100728.06
2022-10-11T22:01:28.380Z,100720.19
2022-10-11T22:03:55.304Z,100715.94
2022-10-11T22:06:22.226Z,100716.81
2022-10-11T22:08:52.746Z,100712.56
2022-10-11T22:11:19.487Z,100710.59
2022-10-11T22:13:46.254Z,100712.56
2022-10-11T22:16:18.686Z,100707.50
2022-10-11T22:18:45.498Z,100704.13
2022-10-11T22:21:20.405Z,100706.41
2022-10-11T22:23:49.037Z,100707.81
2022-10-11T22:26:21.423Z,100710.06
2022-10-11T22:28:48.329Z,100695.53
2022-10-11T22:31:17.317Z,100704.56
2022-10-11T22:36:12.918Z,100699.50
2022-10-11T22:38:41.581Z,100698.78
2022-10-11T22:41:08.480Z,100688.78
2022-10-11T22:43:36.328Z,100689.50
2022-10-11T22:46:05.611Z,100686.81
2022-10-11T22:48:32.398Z,100683.31
2022-10-11T22:50:59.413Z,100682.75
2022-10-11T22:53:26.089Z,100679.50
2022-10-11T22:55:52.843Z,100673.31
2022-10-11T22:58:19.538Z,100674.03
2022-10-11T23:00:46.254Z,100668.28
2022-10-11T23:03:14.503Z,100672.47
2022-10-11T23:05:41.503Z,100669.25
2022-10-11T23:08:09.602Z,100668.28
2022-10-11T23:10:40.204Z,100663.63
2022-10-11T23:13:07.213Z,100664.59
2022-10-11T23:15:34.004Z,100664.03
2022-10-11T23:18:00.725Z,100665.88
2022-10-11T23:20:27.465Z,100654.34
2022-10-11T23:22:54.153Z,100653.50
2022-10-11T23:25:20.876Z,100652.50
2022-10-11T23:27:47.562Z,100658.28
2022-10-11T23:30:14.663Z,100647.88
2022-10-11T23:32:41.385Z,100651.09
2022-10-11T23:35:08.304Z,100649.41
2022-10-11T23:37:35.330Z,100650.97
2022-10-11T23:40:02.355Z,100636.63
2022-10-11T23:42:29.172Z,100643.94
2022-10-11T23:44:55.981Z,100645.75
2022-10-11T23:47:22.732Z,100644.78
2022-10-11T23:49:49.411Z,100651.09
2022-10-11T23:52:16.068Z,100642.53
2022-10-11T23:54:42.739Z,100645.03
2022-10-11T23:57:09.428Z,100640.97
2022-10-11T23:59:36.036Z,100638.28
